CSAV Rio Aysen — D5DX2 — position and weather

sailwx.info

Track history (hours):
 
Tides and Currents Weather Stations Pressure Air Temp Water Temp Dewpoint Dewpoint Depression Visibility Wind Speed Wind Dir Waves Ship Positions

CSAV Rio Aysen

Last reported at 2017-Nov-25 03:51 UTC. Time now 2017-Nov-25 06:11 UTC.
Position N 44°09' W 004°06'.

Length 183 m; draft 8.3 m.

Type: Cargo ship. MMSI: 636015991.

Date/timePositionNaut miles runAvg speedWind from/ knotsBaromVisibWave heightAir tempDewpointWater temp
2017-Nov-25 03:51N 44°09' W 004°06'514.0
2017-Nov-25 03:30N 44°05' W 004°04'914.3
2017-Nov-25 02:55N 43°57' W 003°59'614.3
2017-Nov-25 02:31N 43°52' W 003°56'714.3
2017-Nov-25 02:01N 43°45' W 003°53'714.4
2017-Nov-25 01:31N 43°38' W 003°49'714.2
2017-Nov-25 01:01N 43°32' W 003°45'4 8.6
2017-Nov-25 00:31N 43°28' W 003°47'2 4.7
2017-Nov-25 00:00N 43°27' W 003°49'0 0.0
2017-Nov-24 23:30N 43°27' W 003°49'0 0.0
2017-Nov-24 22:57N 43°27' W 003°49'0 0.0
2017-Nov-24 22:30N 43°27' W 003°49'0 0.0
2017-Nov-24 22:00N 43°27' W 003°49'0 0.0
2017-Nov-24 21:30N 43°27' W 003°49'0 0.0
2017-Nov-24 20:54N 43°27' W 003°49'0 0.0
2017-Nov-24 20:30N 43°27' W 003°49'0 0.0
2017-Nov-24 20:00N 43°27' W 003°49'0 0.0
2017-Nov-24 19:30N 43°27' W 003°49'0 0.0
2017-Nov-24 19:00N 43°27' W 003°49'0 0.0
2017-Nov-24 18:30N 43°27' W 003°49'0 0.0
2017-Nov-24 18:00N 43°27' W 003°49'0 0.0
2017-Nov-24 17:30N 43°27' W 003°49'0 0.0
2017-Nov-24 17:00N 43°27' W 003°49'0 0.0
2017-Nov-24 16:30N 43°27' W 003°49'0 0.0
2017-Nov-24 16:00N 43°27' W 003°49'0 0.0
2017-Nov-24 15:30N 43°27' W 003°49'0 0.0
2017-Nov-24 15:00N 43°27' W 003°49'0 0.0
2017-Nov-24 14:30N 43°27' W 003°49'0 0.0
2017-Nov-24 14:00N 43°27' W 003°49'0 0.0
2017-Nov-24 13:30N 43°27' W 003°49'0 0.0
2017-Nov-24 12:57N 43°27' W 003°49'0 0.0
2017-Nov-24 12:27N 43°27' W 003°49'0 0.0
2017-Nov-24 12:00N 43°27' W 003°49'0 0.0
2017-Nov-24 11:27N 43°27' W 003°49'0 0.0
2017-Nov-24 10:57N 43°27' W 003°49'0 0.0
2017-Nov-24 10:30N 43°27' W 003°49'0 0.0
2017-Nov-24 09:57N 43°27' W 003°49'0 0.0
2017-Nov-24 09:27N 43°27' W 003°49'0 0.0
2017-Nov-24 08:54N 43°27' W 003°49'0 0.0
2017-Nov-24 08:30N 43°27' W 003°49'0 0.0
2017-Nov-24 08:00N 43°27' W 003°49'0 0.0
2017-Nov-24 07:30N 43°27' W 003°49'0 0.0
2017-Nov-24 07:00N 43°27' W 003°49'0 0.0
2017-Nov-24 06:30N 43°27' W 003°49'0 0.0
2017-Nov-24 05:57N 43°27' W 003°49'0 0.0
2017-Nov-24 05:30N 43°27' W 003°49'1 2.0
2017-Nov-24 05:00N 43°27' W 003°48'3 6.4
2017-Nov-24 04:30N 43°29' W 003°45'1 1.4
2017-Nov-24 04:00N 43°29' W 003°45'0 0.2
2017-Nov-24 03:27N 43°29' W 003°45'0 0.0
2017-Nov-24 03:00N 43°29' W 003°45'0 0.0
2017-Nov-24 02:27N 43°29' W 003°45'0 0.1
2017-Nov-24 01:54N 43°29' W 003°45'0 0.0
2017-Nov-24 01:21N 43°29' W 003°45'0 0.0
2017-Nov-24 00:54N 43°29' W 003°45'0 0.0
2017-Nov-24 00:03N 43°29' W 003°45'0 0.5
2017-Nov-23 23:57N 43°29' W 003°45'0 0.1
2017-Nov-23 23:18N 43°29' W 003°45'0 0.1
2017-Nov-23 23:00N 43°29' W 003°45'0 0.2
2017-Nov-23 22:24N 43°29' W 003°45'0 0.0
2017-Nov-23 22:00N 43°29' W 003°45'0 0.1
2017-Nov-23 21:24N 43°29' W 003°45'0 0.0
2017-Nov-23 20:36N 43°29' W 003°45'0 0.2
2017-Nov-23 20:30N 43°29' W 003°45'1 1.8
2017-Nov-23 20:00N 43°30' W 003°45'3 5.4
2017-Nov-23 19:30N 43°33' W 003°46'4 8.4
2017-Nov-23 19:00N 43°36' W 003°49'611.5
2017-Nov-23 18:31N 43°41' W 003°54'612.4
2017-Nov-23 18:00N 43°43' W 004°02'612.3
2017-Nov-23 17:30N 43°45' W 004°10'611.9
2017-Nov-23 17:00N 43°48' W 004°18'612.1
2017-Nov-23 16:30N 43°49' W 004°26'612.2
2017-Nov-23 16:00N 43°51' W 004°34'612.2
2017-Nov-23 15:30N 43°52' W 004°42'612.3
2017-Nov-23 15:00N 43°53' W 004°51'812.6
2017-Nov-23 14:22N 43°53' W 005°02'512.7
2017-Nov-23 14:00N 43°53' W 005°08'712.8
2017-Nov-23 13:30N 43°53' W 005°17'713.6
2017-Nov-23 13:01N 43°52' W 005°27'917.7
2017-Nov-23 12:30N 43°55' W 005°38'714.4
2017-Nov-23 12:00N 43°55' W 005°48'712.9
2017-Nov-23 11:30N 43°56' W 005°57'4913.0
2017-Nov-23 07:44N 43°59' W 007°05'413.2
2017-Nov-23 07:26N 43°59' W 007°11'613.3
2017-Nov-23 06:59N 43°59' W 007°19'613.2
2017-Nov-23 06:30N 43°60' W 007°27'713.2
2017-Nov-23 06:00N 44°00' W 007°37'712.8
2017-Nov-23 05:30N 43°59' W 007°46'712.8
2017-Nov-23 04:59N 43°57' W 007°55'713.2
2017-Nov-23 04:27N 43°55' W 008°04'  
2017-Nov-20 00:27N 29°08' W 015°28'1012.1
2017-Nov-19 23:39N 28°58' W 015°31'212.1
2017-Nov-19 23:30N 28°57' W 015°32'612.2
2017-Nov-19 23:00N 28°51' W 015°34'612.3
2017-Nov-19 22:30N 28°45' W 015°36'612.2
2017-Nov-19 22:00N 28°39' W 015°38'611.7
2017-Nov-19 21:30N 28°34' W 015°41'611.9
2017-Nov-19 21:00N 28°30' W 015°45'611.7
2017-Nov-19 20:30N 28°25' W 015°50'611.6
2017-Nov-19 20:00N 28°21' W 015°54'611.8
2017-Nov-19 19:30N 28°16' W 015°58'  
2017-Nov-16 01:18N 09°14' W 016°08'  
Track history (hours):
 
Tides and Currents Weather Stations Pressure Air Temp Water Temp Dewpoint Dewpoint Depression Visibility Wind Speed Wind Dir Waves Ship Positions

CSAV Rio Aysen

Last reported at 2017-Nov-25 03:51 UTC. Time now 2017-Nov-25 06:11 UTC.
Position N 44°09' W 004°06'.

Length 183 m; draft 8.3 m.

Type: Cargo ship. MMSI: 636015991.

Date/timePositionNaut miles runAvg speedWind from/ knotsBaromVisibWave heightAir tempDewpointWater temp
2017-Nov-25 03:51N 44°09' W 004°06'514.0
2017-Nov-25 03:30N 44°05' W 004°04'914.3
2017-Nov-25 02:55N 43°57' W 003°59'614.3
2017-Nov-25 02:31N 43°52' W 003°56'714.3
2017-Nov-25 02:01N 43°45' W 003°53'714.4
2017-Nov-25 01:31N 43°38' W 003°49'714.2
2017-Nov-25 01:01N 43°32' W 003°45'4 8.6
2017-Nov-25 00:31N 43°28' W 003°47'2 4.7
2017-Nov-25 00:00N 43°27' W 003°49'0 0.0
2017-Nov-24 23:30N 43°27' W 003°49'0 0.0
2017-Nov-24 22:57N 43°27' W 003°49'0 0.0
2017-Nov-24 22:30N 43°27' W 003°49'0 0.0
2017-Nov-24 22:00N 43°27' W 003°49'0 0.0
2017-Nov-24 21:30N 43°27' W 003°49'0 0.0
2017-Nov-24 20:54N 43°27' W 003°49'0 0.0
2017-Nov-24 20:30N 43°27' W 003°49'0 0.0
2017-Nov-24 20:00N 43°27' W 003°49'0 0.0
2017-Nov-24 19:30N 43°27' W 003°49'0 0.0
2017-Nov-24 19:00N 43°27' W 003°49'0 0.0
2017-Nov-24 18:30N 43°27' W 003°49'0 0.0
2017-Nov-24 18:00N 43°27' W 003°49'0 0.0
2017-Nov-24 17:30N 43°27' W 003°49'0 0.0
2017-Nov-24 17:00N 43°27' W 003°49'0 0.0
2017-Nov-24 16:30N 43°27' W 003°49'0 0.0
2017-Nov-24 16:00N 43°27' W 003°49'0 0.0
2017-Nov-24 15:30N 43°27' W 003°49'0 0.0
2017-Nov-24 15:00N 43°27' W 003°49'0 0.0
2017-Nov-24 14:30N 43°27' W 003°49'0 0.0
2017-Nov-24 14:00N 43°27' W 003°49'0 0.0
2017-Nov-24 13:30N 43°27' W 003°49'0 0.0
2017-Nov-24 12:57N 43°27' W 003°49'0 0.0
2017-Nov-24 12:27N 43°27' W 003°49'0 0.0
2017-Nov-24 12:00N 43°27' W 003°49'0 0.0
2017-Nov-24 11:27N 43°27' W 003°49'0 0.0
2017-Nov-24 10:57N 43°27' W 003°49'0 0.0
2017-Nov-24 10:30N 43°27' W 003°49'0 0.0
2017-Nov-24 09:57N 43°27' W 003°49'0 0.0
2017-Nov-24 09:27N 43°27' W 003°49'0 0.0
2017-Nov-24 08:54N 43°27' W 003°49'0 0.0
2017-Nov-24 08:30N 43°27' W 003°49'0 0.0
2017-Nov-24 08:00N 43°27' W 003°49'0 0.0
2017-Nov-24 07:30N 43°27' W 003°49'0 0.0
2017-Nov-24 07:00N 43°27' W 003°49'0 0.0
2017-Nov-24 06:30N 43°27' W 003°49'0 0.0
2017-Nov-24 05:57N 43°27' W 003°49'0 0.0
2017-Nov-24 05:30N 43°27' W 003°49'1 2.0
2017-Nov-24 05:00N 43°27' W 003°48'3 6.4
2017-Nov-24 04:30N 43°29' W 003°45'1 1.4
2017-Nov-24 04:00N 43°29' W 003°45'0 0.2
2017-Nov-24 03:27N 43°29' W 003°45'0 0.0
2017-Nov-24 03:00N 43°29' W 003°45'0 0.0
2017-Nov-24 02:27N 43°29' W 003°45'0 0.1
2017-Nov-24 01:54N 43°29' W 003°45'0 0.0
2017-Nov-24 01:21N 43°29' W 003°45'0 0.0
2017-Nov-24 00:54N 43°29' W 003°45'0 0.0
2017-Nov-24 00:03N 43°29' W 003°45'0 0.5
2017-Nov-23 23:57N 43°29' W 003°45'0 0.1
2017-Nov-23 23:18N 43°29' W 003°45'0 0.1
2017-Nov-23 23:00N 43°29' W 003°45'0 0.2
2017-Nov-23 22:24N 43°29' W 003°45'0 0.0
2017-Nov-23 22:00N 43°29' W 003°45'0 0.1
2017-Nov-23 21:24N 43°29' W 003°45'0 0.0
2017-Nov-23 20:36N 43°29' W 003°45'0 0.2
2017-Nov-23 20:30N 43°29' W 003°45'1 1.8
2017-Nov-23 20:00N 43°30' W 003°45'3 5.4
2017-Nov-23 19:30N 43°33' W 003°46'4 8.4
2017-Nov-23 19:00N 43°36' W 003°49'611.5
2017-Nov-23 18:31N 43°41' W 003°54'612.4
2017-Nov-23 18:00N 43°43' W 004°02'612.3
2017-Nov-23 17:30N 43°45' W 004°10'611.9
2017-Nov-23 17:00N 43°48' W 004°18'612.1
2017-Nov-23 16:30N 43°49' W 004°26'612.2
2017-Nov-23 16:00N 43°51' W 004°34'612.2
2017-Nov-23 15:30N 43°52' W 004°42'612.3
2017-Nov-23 15:00N 43°53' W 004°51'812.6
2017-Nov-23 14:22N 43°53' W 005°02'512.7
2017-Nov-23 14:00N 43°53' W 005°08'712.8
2017-Nov-23 13:30N 43°53' W 005°17'713.6
2017-Nov-23 13:01N 43°52' W 005°27'917.7
2017-Nov-23 12:30N 43°55' W 005°38'714.4
2017-Nov-23 12:00N 43°55' W 005°48'712.9
2017-Nov-23 11:30N 43°56' W 005°57'4913.0
2017-Nov-23 07:44N 43°59' W 007°05'413.2
2017-Nov-23 07:26N 43°59' W 007°11'613.3
2017-Nov-23 06:59N 43°59' W 007°19'613.2
2017-Nov-23 06:30N 43°60' W 007°27'713.2
2017-Nov-23 06:00N 44°00' W 007°37'712.8
2017-Nov-23 05:30N 43°59' W 007°46'712.8
2017-Nov-23 04:59N 43°57' W 007°55'713.2
2017-Nov-23 04:27N 43°55' W 008°04'  
2017-Nov-20 00:27N 29°08' W 015°28'1012.1
2017-Nov-19 23:39N 28°58' W 015°31'212.1
2017-Nov-19 23:30N 28°57' W 015°32'612.2
2017-Nov-19 23:00N 28°51' W 015°34'612.3
2017-Nov-19 22:30N 28°45' W 015°36'612.2
2017-Nov-19 22:00N 28°39' W 015°38'611.7
2017-Nov-19 21:30N 28°34' W 015°41'611.9
2017-Nov-19 21:00N 28°30' W 015°45'611.7
2017-Nov-19 20:30N 28°25' W 015°50'611.6
2017-Nov-19 20:00N 28°21' W 015°54'611.8
2017-Nov-19 19:30N 28°16' W 015°58'  
2017-Nov-16 01:18N 09°14' W 016°08'  

Dump ship's entire track history